createdAt,value
2022-12-31T00:01:45.151Z,1.65
2022-12-31T00:04:11.871Z,1.60
2022-12-31T00:06:38.596Z,1.83
2022-12-31T00:09:07.420Z,1.45
2022-12-31T00:11:35.364Z,2.23
2022-12-31T00:14:02.206Z,1.73
2022-12-31T00:16:32.371Z,1.60
2022-12-31T00:19:00.912Z,1.42
2022-12-31T00:21:29.474Z,1.80
2022-12-31T00:23:56.588Z,1.63
2022-12-31T00:26:27.395Z,1.40
2022-12-31T00:28:55.884Z,1.50
2022-12-31T00:31:25.136Z,2.05
2022-12-31T00:33:52.395Z,2.20
2022-12-31T00:36:22.237Z,1.97
2022-12-31T00:38:50.866Z,2.17
2022-12-31T00:41:19.129Z,2.22
2022-12-31T00:43:46.146Z,2.28
2022-12-31T00:46:13.455Z,2.33
2022-12-31T00:48:40.677Z,2.07
2022-12-31T00:51:11.099Z,2.53
2022-12-31T00:53:39.661Z,2.80
2022-12-31T00:56:10.094Z,2.58
2022-12-31T00:58:37.441Z,2.65
2022-12-31T01:01:09.574Z,2.37
2022-12-31T01:03:36.375Z,2.40
2022-12-31T01:06:03.132Z,1.83
2022-12-31T01:08:29.832Z,2.20
2022-12-31T01:10:58.860Z,2.20
2022-12-31T01:13:25.537Z,2.23
2022-12-31T01:15:52.362Z,2.25
2022-12-31T01:18:19.161Z,2.00
2022-12-31T01:20:45.867Z,1.80
2022-12-31T01:23:15.734Z,2.03
2022-12-31T01:25:42.395Z,1.93
2022-12-31T01:28:10.455Z,2.13
2022-12-31T01:30:39.269Z,2.28
2022-12-31T01:33:06.002Z,2.15
2022-12-31T01:35:34.470Z,1.92
2022-12-31T01:38:01.300Z,1.87
2022-12-31T01:40:28.041Z,1.90
2022-12-31T01:42:55.099Z,2.00
2022-12-31T01:45:23.782Z,2.00
2022-12-31T01:47:53.538Z,1.75
2022-12-31T01:50:24.613Z,1.57
2022-12-31T01:52:54.696Z,1.65
2022-12-31T01:55:24.541Z,1.45
2022-12-31T01:57:55.377Z,1.38
2022-12-31T02:00:23.510Z,1.30
2022-12-31T02:02:50.672Z,1.10
2022-12-31T02:05:23.302Z,1.33
2022-12-31T02:07:50.728Z,1.30
2022-12-31T02:10:17.849Z,1.35
2022-12-31T02:12:44.867Z,1.20
2022-12-31T02:15:11.700Z,0.87
2022-12-31T02:17:47.476Z,1.00
2022-12-31T02:20:40.476Z,0.95
2022-12-31T02:23:31.392Z,0.60
2022-12-31T02:26:28.840Z,0.60
2022-12-31T02:29:14.688Z,0.50
2022-12-31T02:31:48.281Z,0.57
2022-12-31T02:34:21.903Z,0.50
2022-12-31T02:36:52.722Z,0.50
2022-12-31T02:39:19.840Z,0.55
2022-12-31T02:41:48.046Z,0.40
2022-12-31T02:44:26.331Z,0.43
2022-12-31T02:47:16.602Z,0.50
2022-12-31T02:49:52.635Z,0.40
2022-12-31T02:52:26.999Z,0.60
2022-12-31T02:55:02.568Z,0.47
2022-12-31T02:57:35.300Z,0.40
2022-12-31T03:00:05.256Z,0.50
2022-12-31T03:02:35.398Z,0.70
2022-12-31T03:05:03.300Z,0.40
2022-12-31T03:07:31.476Z,0.50
2022-12-31T03:09:58.793Z,0.63
2022-12-31T03:12:28.211Z,0.30
2022-12-31T03:14:54.996Z,0.50
2022-12-31T03:17:21.935Z,0.50
2022-12-31T03:19:50.107Z,0.60
2022-12-31T03:22:16.963Z,0.70
2022-12-31T03:24:43.654Z,0.50
2022-12-31T03:27:10.304Z,0.68
2022-12-31T03:29:37.003Z,0.70
2022-12-31T03:32:04.171Z,0.50
2022-12-31T03:34:30.918Z,0.50
2022-12-31T03:36:58.948Z,0.70
2022-12-31T03:39:25.618Z,0.50
2022-12-31T03:41:52.354Z,0.50
2022-12-31T03:44:19.111Z,0.40
2022-12-31T03:46:45.805Z,0.50
2022-12-31T03:49:12.539Z,0.50
2022-12-31T03:51:39.199Z,0.43
2022-12-31T03:54:07.266Z,0.63
2022-12-31T03:56:33.973Z,0.30
2022-12-31T03:59:00.718Z,0.43
2022-12-31T04:01:27.537Z,0.60
2022-12-31T04:03:54.243Z,0.52
2022-12-31T04:06:20.945Z,0.40
2022-12-31T04:08:47.615Z,0.77
2022-12-31T04:11:20.640Z,0.55
2022-12-31T04:13:47.731Z,0.30
2022-12-31T04:16:14.474Z,0.55
2022-12-31T04:18:41.240Z,0.57
2022-12-31T04:21:07.950Z,0.60
2022-12-31T04:23:34.606Z,0.80
2022-12-31T04:26:01.425Z,0.50
2022-12-31T04:28:29.584Z,0.65
2022-12-31T04:30:56.785Z,0.70
2022-12-31T04:33:23.499Z,0.60
2022-12-31T04:35:50.331Z,0.70
2022-12-31T04:38:17.017Z,0.60
2022-12-31T04:40:45.124Z,0.60
2022-12-31T04:43:11.819Z,0.40
2022-12-31T04:45:39.944Z,0.50
2022-12-31T04:48:06.851Z,1.10
2022-12-31T04:50:33.541Z,0.47
2022-12-31T04:53:00.213Z,0.40
2022-12-31T04:55:26.906Z,0.50
2022-12-31T04:57:53.580Z,0.53
2022-12-31T05:00:20.343Z,0.40
2022-12-31T05:02:48.631Z,0.57
2022-12-31T05:05:15.559Z,0.50
2022-12-31T05:07:42.233Z,0.50
2022-12-31T05:10:09.516Z,0.50
2022-12-31T05:12:36.239Z,0.50
2022-12-31T05:15:03.130Z,0.68
2022-12-31T05:17:29.780Z,0.50
2022-12-31T05:19:57.922Z,0.40
2022-12-31T05:22:24.701Z,0.40
2022-12-31T05:24:51.365Z,0.50
2022-12-31T05:27:18.100Z,0.55
2022-12-31T05:29:44.884Z,0.60
2022-12-31T05:32:11.591Z,0.52
2022-12-31T05:34:38.311Z,0.50
2022-12-31T05:37:06.482Z,0.50
2022-12-31T05:39:33.177Z,1.15
2022-12-31T05:41:59.881Z,0.50
2022-12-31T05:44:26.637Z,0.68
2022-12-31T05:46:53.372Z,0.43
2022-12-31T05:49:20.115Z,0.40
2022-12-31T05:51:46.769Z,0.38
2022-12-31T05:54:14.843Z,0.40
2022-12-31T05:56:41.621Z,0.60
2022-12-31T05:59:08.368Z,0.40
2022-12-31T06:01:35.057Z,0.50
2022-12-31T06:04:01.981Z,0.40
2022-12-31T06:06:28.681Z,0.40
2022-12-31T06:08:55.402Z,0.47
2022-12-31T06:11:23.707Z,0.40
2022-12-31T06:13:50.459Z,0.50
2022-12-31T06:16:17.177Z,0.45
2022-12-31T06:18:43.879Z,0.50
2022-12-31T06:21:10.592Z,1.10
2022-12-31T06:23:37.293Z,0.40
2022-12-31T06:26:05.921Z,0.40
2022-12-31T06:28:34.086Z,0.57
2022-12-31T06:31:01.177Z,0.45
2022-12-31T06:33:28.081Z,0.50
2022-12-31T06:35:56.393Z,0.63
2022-12-31T06:38:23.174Z,0.50
2022-12-31T06:40:50.243Z,0.40
2022-12-31T06:43:16.983Z,0.50
2022-12-31T06:45:45.127Z,0.40
2022-12-31T06:48:11.923Z,0.50
2022-12-31T06:50:39.097Z,0.50
2022-12-31T06:53:05.800Z,0.80
2022-12-31T06:55:32.993Z,0.40
2022-12-31T06:58:00.264Z,0.60
2022-12-31T07:00:27.653Z,0.50
2022-12-31T07:03:15.697Z,0.60
2022-12-31T07:05:47.055Z,0.80
2022-12-31T07:08:33.645Z,0.50
2022-12-31T07:11:06.628Z,0.60
2022-12-31T07:13:50.719Z,0.60
2022-12-31T07:16:30.298Z,1.40
2022-12-31T07:19:12.221Z,0.50
2022-12-31T07:21:40.660Z,0.73
2022-12-31T07:24:09.188Z,1.20
2022-12-31T07:26:56.846Z,0.80
2022-12-31T07:29:33.323Z,0.70
2022-12-31T07:32:11.304Z,0.65
2022-12-31T07:34:46.723Z,0.68
2022-12-31T07:37:22.290Z,0.70
2022-12-31T07:40:01.409Z,0.60
2022-12-31T07:42:36.544Z,0.70
2022-12-31T07:45:10.894Z,0.90
2022-12-31T07:47:38.336Z,0.90
2022-12-31T07:50:13.846Z,0.68
2022-12-31T07:52:41.058Z,1.20
2022-12-31T07:55:08.328Z,1.05
2022-12-31T07:57:41.031Z,0.90
2022-12-31T08:00:11.738Z,0.77
2022-12-31T08:03:01.826Z,0.50
2022-12-31T08:05:36.484Z,0.60
2022-12-31T08:08:17.453Z,0.63
2022-12-31T08:10:56.228Z,0.98
2022-12-31T08:13:23.226Z,0.65
2022-12-31T08:15:50.613Z,0.55
2022-12-31T08:18:17.711Z,0.83
2022-12-31T08:20:55.574Z,0.93
2022-12-31T08:23:28.393Z,0.60
2022-12-31T08:26:08.321Z,0.77
2022-12-31T08:28:52.933Z,0.80
2022-12-31T08:31:25.643Z,0.87
2022-12-31T08:34:05.514Z,0.70
2022-12-31T08:36:42.790Z,0.77
2022-12-31T08:39:24.678Z,0.55
2022-12-31T08:41:54.981Z,0.73
2022-12-31T08:44:29.719Z,0.57
2022-12-31T08:47:03.414Z,0.70
2022-12-31T08:49:33.154Z,0.90
2022-12-31T08:52:03.070Z,0.77
2022-12-31T08:54:30.325Z,0.90
2022-12-31T08:57:04.753Z,0.90
2022-12-31T08:59:39.105Z,0.80
2022-12-31T09:02:26.499Z,0.70
2022-12-31T09:05:01.092Z,0.80
2022-12-31T09:07:36.064Z,0.80
2022-12-31T09:10:14.656Z,0.83
2022-12-31T09:12:48.679Z,0.70
2022-12-31T09:15:21.272Z,0.70
2022-12-31T09:17:49.952Z,0.63
2022-12-31T09:20:23.152Z,0.60
2022-12-31T09:22:52.041Z,0.57
2022-12-31T09:25:21.084Z,0.70
2022-12-31T09:27:57.923Z,0.70
2022-12-31T09:30:28.649Z,0.60
2022-12-31T09:33:02.752Z,0.80
2022-12-31T09:35:36.891Z,0.70
2022-12-31T09:38:11.849Z,0.60
2022-12-31T09:41:12.475Z,0.60
2022-12-31T09:44:14.949Z,0.60
2022-12-31T09:47:18.743Z,0.90
2022-12-31T09:50:15.165Z,0.50
2022-12-31T09:52:58.807Z,0.63
2022-12-31T09:55:36.908Z,0.68
2022-12-31T09:58:16.733Z,0.60
2022-12-31T10:00:50.043Z,0.68
2022-12-31T10:03:33.997Z,0.70
2022-12-31T10:06:14.437Z,0.45
2022-12-31T10:08:54.381Z,0.60
2022-12-31T10:11:29.279Z,0.70
2022-12-31T10:14:08.129Z,0.75
2022-12-31T10:16:48.691Z,0.50
2022-12-31T10:19:45.824Z,0.50
2022-12-31T10:22:47.309Z,0.68
2022-12-31T10:25:46.548Z,0.60
2022-12-31T10:28:29.686Z,0.50
2022-12-31T10:31:12.789Z,0.60
2022-12-31T10:33:44.051Z,0.50
2022-12-31T10:36:18.843Z,0.80
2022-12-31T10:38:58.736Z,0.70
2022-12-31T10:42:05.401Z,0.80
2022-12-31T10:45:03.112Z,0.60
2022-12-31T10:48:00.461Z,0.80
2022-12-31T10:51:01.911Z,0.65
2022-12-31T10:54:18.753Z,0.60
2022-12-31T10:57:27.114Z,0.50
2022-12-31T11:00:17.168Z,0.60
2022-12-31T11:03:20.954Z,0.85
2022-12-31T11:06:18.772Z,0.75
2022-12-31T11:09:06.336Z,0.88
2022-12-31T11:11:42.255Z,0.88
2022-12-31T11:14:38.114Z,0.70
2022-12-31T11:17:33.522Z,0.70
2022-12-31T11:20:19.466Z,0.60
2022-12-31T11:22:59.214Z,0.55
2022-12-31T11:25:33.994Z,0.60
2022-12-31T11:28:16.698Z,0.73
2022-12-31T11:30:57.768Z,0.60
2022-12-31T11:33:43.032Z,0.77
2022-12-31T11:36:24.444Z,0.70
2022-12-31T11:38:53.218Z,0.80
2022-12-31T11:41:30.091Z,0.90
2022-12-31T11:44:06.036Z,0.90
2022-12-31T11:46:51.275Z,0.82
2022-12-31T11:49:56.054Z,0.90
2022-12-31T11:52:49.609Z,0.90
2022-12-31T11:55:34.858Z,0.80
2022-12-31T11:58:13.266Z,0.70
2022-12-31T12:00:44.027Z,1.00
2022-12-31T12:03:11.574Z,0.60
2022-12-31T12:05:40.394Z,0.70
2022-12-31T12:08:07.172Z,0.60
2022-12-31T12:10:41.017Z,0.80
2022-12-31T12:13:13.798Z,1.00
2022-12-31T12:15:44.700Z,1.00
2022-12-31T12:18:24.873Z,2.03
2022-12-31T12:21:00.667Z,3.17
2022-12-31T12:23:27.549Z,1.08
2022-12-31T12:25:54.255Z,0.90
2022-12-31T12:28:23.133Z,0.63
2022-12-31T12:30:59.334Z,0.70
2022-12-31T12:33:27.142Z,0.90
2022-12-31T12:36:06.453Z,1.40
2022-12-31T12:38:33.338Z,1.17
2022-12-31T12:41:02.523Z,1.25
2022-12-31T12:43:31.072Z,0.93
2022-12-31T12:46:00.256Z,0.93
2022-12-31T12:48:34.705Z,21.50
2022-12-31T12:51:13.931Z,4.05
2022-12-31T12:53:49.636Z,0.80
2022-12-31T12:56:27.684Z,0.60
2022-12-31T12:59:10.401Z,2.67
2022-12-31T13:01:42.620Z,0.93
2022-12-31T13:04:39.490Z,0.73
2022-12-31T13:07:18.915Z,0.73
2022-12-31T13:10:01.316Z,0.70
2022-12-31T13:13:05.268Z,0.70
2022-12-31T13:15:26.761Z,0.60
2022-12-31T13:18:03.077Z,0.88
2022-12-31T13:20:38.194Z,0.65
2022-12-31T13:23:17.481Z,0.60
2022-12-31T13:25:58.655Z,0.50
2022-12-31T13:28:26.591Z,0.70
2022-12-31T13:31:03.240Z,0.75
2022-12-31T13:33:38.280Z,20.08
2022-12-31T13:36:08.786Z,2.45
2022-12-31T13:38:40.577Z,0.80
2022-12-31T13:41:13.437Z,0.77
2022-12-31T13:43:50.636Z,0.70
2022-12-31T13:46:23.636Z,0.60
2022-12-31T13:48:53.471Z,0.65
2022-12-31T13:51:31.368Z,0.70
2022-12-31T13:54:03.431Z,0.50
2022-12-31T13:56:36.209Z,0.70
2022-12-31T13:59:07.463Z,0.98
2022-12-31T14:01:38.760Z,0.70
2022-12-31T14:04:10.049Z,0.90
2022-12-31T14:06:41.526Z,0.85
2022-12-31T14:09:13.623Z,1.27
2022-12-31T14:11:58.405Z,1.27
2022-12-31T14:14:31.156Z,0.98
2022-12-31T14:17:01.728Z,0.90
2022-12-31T14:19:41.769Z,0.82
2022-12-31T14:22:17.183Z,1.33
2022-12-31T14:24:47.868Z,0.70
2022-12-31T14:27:21.703Z,0.90
2022-12-31T14:29:53.529Z,0.93
2022-12-31T14:32:53.262Z,0.80
2022-12-31T14:35:41.380Z,0.80
2022-12-31T14:38:17.327Z,0.70
2022-12-31T14:40:59.920Z,0.77
2022-12-31T14:43:39.684Z,0.67
2022-12-31T14:46:18.239Z,0.52
2022-12-31T14:48:55.750Z,0.60
2022-12-31T14:51:26.814Z,0.77
2022-12-31T14:53:54.547Z,0.70
2022-12-31T14:56:40.126Z,1.20
2022-12-31T14:59:25.251Z,0.82
2022-12-31T15:01:52.164Z,0.70
2022-12-31T15:04:31.170Z,0.88
2022-12-31T15:07:06.876Z,1.38
2022-12-31T15:09:58.107Z,0.60
2022-12-31T15:12:44.941Z,0.70
2022-12-31T15:15:24.955Z,0.90
2022-12-31T15:18:01.753Z,0.80
2022-12-31T15:20:44.990Z,1.40
2022-12-31T15:23:21.937Z,1.60
2022-12-31T15:25:51.800Z,1.80
2022-12-31T15:28:30.624Z,1.63
2022-12-31T15:31:18.521Z,1.10
2022-12-31T15:33:56.424Z,2.75
2022-12-31T15:36:25.329Z,2.60
2022-12-31T15:39:02.997Z,2.20
2022-12-31T15:41:37.900Z,2.00
2022-12-31T15:44:15.975Z,1.73
2022-12-31T15:46:43.892Z,1.60
2022-12-31T15:49:15.799Z,1.47
2022-12-31T15:51:48.315Z,2.72
2022-12-31T15:54:23.847Z,2.38
2022-12-31T15:56:52.745Z,3.22
2022-12-31T15:59:22.271Z,3.25
2022-12-31T16:01:49.318Z,2.83
2022-12-31T16:04:19.951Z,3.10
2022-12-31T16:06:51.005Z,2.65
2022-12-31T16:09:22.721Z,2.40
2022-12-31T16:11:50.023Z,7.60
2022-12-31T16:14:22.181Z,8.73
2022-12-31T16:16:54.742Z,8.07
2022-12-31T16:19:29.827Z,7.43
2022-12-31T16:21:58.315Z,5.95
2022-12-31T16:24:28.348Z,7.50
2022-12-31T16:26:59.747Z,4.30
2022-12-31T16:29:28.104Z,3.25
2022-12-31T16:31:55.057Z,40.25
2022-12-31T16:34:23.773Z,37.47
2022-12-31T16:36:58.269Z,20.10
2022-12-31T16:39:30.699Z,13.10
2022-12-31T16:42:09.731Z,11.77
2022-12-31T16:44:37.802Z,12.20
2022-12-31T16:47:06.910Z,9.13
2022-12-31T16:49:37.256Z,5.10
2022-12-31T16:52:07.686Z,4.37
2022-12-31T16:54:37.086Z,10.70
2022-12-31T16:57:04.867Z,9.05
2022-12-31T16:59:36.435Z,6.70
2022-12-31T17:02:15.844Z,5.25
2022-12-31T17:04:53.563Z,4.90
2022-12-31T17:07:35.332Z,5.28
2022-12-31T17:10:03.743Z,4.43
2022-12-31T17:12:41.849Z,5.15
2022-12-31T17:15:20.790Z,6.10
2022-12-31T17:17:54.749Z,4.90
2022-12-31T17:20:27.143Z,5.32
2022-12-31T17:22:56.391Z,9.05
2022-12-31T17:25:26.463Z,6.72
2022-12-31T17:27:56.565Z,5.38
2022-12-31T17:30:37.558Z,5.70
2022-12-31T17:33:27.306Z,4.75
2022-12-31T17:35:55.880Z,5.40
2022-12-31T17:38:30.953Z,5.47
2022-12-31T17:41:04.019Z,5.50
2022-12-31T17:43:35.224Z,5.00
2022-12-31T17:46:08.242Z,5.35
2022-12-31T17:48:36.868Z,5.30
2022-12-31T17:51:03.746Z,5.93
2022-12-31T17:53:30.414Z,6.30
2022-12-31T17:56:01.335Z,5.47
2022-12-31T17:58:30.186Z,6.50
2022-12-31T18:00:57.988Z,5.85
2022-12-31T18:03:25.032Z,6.28
2022-12-31T18:05:53.152Z,7.45
2022-12-31T18:08:19.891Z,6.40
2022-12-31T18:10:46.787Z,6.28
2022-12-31T18:13:15.997Z,6.60
2022-12-31T18:15:42.667Z,6.47
2022-12-31T18:18:24.445Z,7.15
2022-12-31T18:20:55.471Z,7.43
2022-12-31T18:23:25.637Z,8.23
2022-12-31T18:25:52.307Z,50.33
2022-12-31T18:28:19.461Z,82.88
2022-12-31T18:30:47.088Z,102.15
2022-12-31T18:33:15.297Z,107.07
2022-12-31T18:36:07.726Z,101.78
2022-12-31T18:38:30.046Z,99.20
2022-12-31T18:40:59.300Z,82.63
2022-12-31T18:43:26.051Z,65.60
2022-12-31T18:45:53.186Z,40.90
2022-12-31T18:48:19.909Z,31.75
2022-12-31T18:50:47.519Z,27.65
2022-12-31T18:53:16.187Z,26.67
2022-12-31T18:55:46.632Z,21.50
2022-12-31T18:58:13.369Z,19.20
2022-12-31T19:00:40.303Z,18.55
2022-12-31T19:03:07.058Z,16.35
2022-12-31T19:05:37.021Z,13.80
2022-12-31T19:08:03.970Z,13.10
2022-12-31T19:10:30.771Z,14.90
2022-12-31T19:12:58.904Z,14.98
2022-12-31T19:15:29.133Z,14.65
2022-12-31T19:17:56.271Z,12.88
2022-12-31T19:20:23.181Z,13.73
2022-12-31T19:22:49.901Z,12.73
2022-12-31T19:25:22.149Z,10.95
2022-12-31T19:27:49.337Z,10.57
2022-12-31T19:30:21.076Z,9.80
2022-12-31T19:32:47.935Z,10.00
2022-12-31T19:35:15.835Z,9.30
2022-12-31T19:37:44.124Z,8.77
2022-12-31T19:40:14.539Z,9.23
2022-12-31T19:42:41.928Z,9.40
2022-12-31T19:45:13.896Z,9.50
2022-12-31T19:47:42.603Z,8.57
2022-12-31T19:50:12.969Z,8.63
2022-12-31T19:52:40.094Z,9.85
2022-12-31T19:55:07.560Z,9.00
2022-12-31T19:57:34.257Z,9.10
2022-12-31T20:00:00.925Z,8.77
2022-12-31T20:02:27.898Z,10.75
2022-12-31T20:04:56.141Z,9.68
2022-12-31T20:07:27.147Z,9.02
2022-12-31T20:09:54.101Z,11.23
2022-12-31T20:12:20.831Z,10.17
2022-12-31T20:14:47.689Z,10.35
2022-12-31T20:17:14.462Z,10.75
2022-12-31T20:19:41.199Z,9.88
2022-12-31T20:22:09.325Z,10.07
2022-12-31T20:24:35.989Z,9.23
2022-12-31T20:27:02.908Z,11.05
2022-12-31T20:29:29.591Z,10.35
2022-12-31T20:31:56.457Z,12.32
2022-12-31T20:34:23.194Z,11.10
2022-12-31T20:36:49.876Z,10.73
2022-12-31T20:39:18.030Z,10.88
2022-12-31T20:41:44.747Z,11.73
2022-12-31T20:44:11.414Z,10.18
2022-12-31T20:46:38.180Z,9.20
2022-12-31T20:49:05.828Z,9.10
2022-12-31T20:51:34.476Z,9.15
2022-12-31T20:54:02.827Z,8.82
2022-12-31T20:56:33.271Z,10.90
2022-12-31T20:59:00.401Z,10.10
2022-12-31T21:01:36.303Z,10.00
2022-12-31T21:04:08.437Z,9.93
2022-12-31T21:06:35.760Z,10.38
2022-12-31T21:09:04.082Z,10.25
2022-12-31T21:11:32.315Z,10.20
2022-12-31T21:13:59.600Z,9.40
2022-12-31T21:16:27.122Z,9.63
2022-12-31T21:18:54.059Z,9.77
2022-12-31T21:21:21.111Z,9.80
2022-12-31T21:23:47.885Z,9.77
2022-12-31T21:26:14.702Z,9.03
2022-12-31T21:28:42.893Z,9.80
2022-12-31T21:31:12.157Z,9.57
2022-12-31T21:33:39.218Z,10.18
2022-12-31T21:36:06.360Z,9.25
2022-12-31T21:38:35.870Z,10.17
2022-12-31T21:41:03.102Z,9.55
2022-12-31T21:43:29.886Z,9.82
2022-12-31T21:46:02.362Z,9.82
2022-12-31T21:48:29.169Z,10.40
2022-12-31T21:51:05.058Z,9.67
2022-12-31T21:53:36.607Z,10.13
2022-12-31T21:56:04.045Z,11.13
2022-12-31T21:58:31.422Z,10.13
2022-12-31T22:00:59.458Z,11.20
2022-12-31T22:03:28.573Z,10.10
2022-12-31T22:05:58.261Z,8.82
2022-12-31T22:08:24.955Z,14.55
2022-12-31T22:10:53.067Z,10.85
2022-12-31T22:13:19.956Z,12.75
2022-12-31T22:15:48.314Z,13.40
2022-12-31T22:18:16.459Z,12.73
2022-12-31T22:20:44.522Z,13.77
2022-12-31T22:23:11.319Z,11.02
2022-12-31T22:25:38.933Z,10.30
2022-12-31T22:28:37.399Z,10.23
2022-12-31T22:30:53.344Z,10.60
2022-12-31T22:33:20.078Z,9.82
2022-12-31T22:35:58.844Z,10.48
2022-12-31T22:38:25.779Z,12.85
2022-12-31T22:41:00.320Z,12.00
2022-12-31T22:43:27.094Z,14.82
2022-12-31T22:45:53.837Z,18.40
2022-12-31T22:48:20.478Z,16.55
2022-12-31T22:50:54.522Z,12.00
2022-12-31T22:53:22.776Z,11.60
2022-12-31T22:55:49.500Z,10.45
2022-12-31T22:58:16.323Z,11.68
2022-12-31T23:00:43.065Z,12.05
2022-12-31T23:03:09.726Z,11.77
2022-12-31T23:05:36.453Z,12.83
2022-12-31T23:08:10.237Z,18.17
2022-12-31T23:10:45.889Z,18.35
2022-12-31T23:13:12.591Z,19.17
2022-12-31T23:15:39.231Z,23.77
2022-12-31T23:18:05.885Z,26.90
2022-12-31T23:20:32.642Z,37.83
2022-12-31T23:22:59.298Z,54.33
2022-12-31T23:25:25.991Z,70.93
2022-12-31T23:27:54.056Z,97.03
2022-12-31T23:30:20.715Z,106.03
2022-12-31T23:32:47.577Z,96.82
2022-12-31T23:35:14.449Z,93.13
2022-12-31T23:37:41.241Z,95.82
2022-12-31T23:40:09.329Z,93.32
2022-12-31T23:42:36.007Z,95.63
2022-12-31T23:45:04.997Z,117.35
2022-12-31T23:47:31.747Z,122.00
2022-12-31T23:49:58.527Z,126.68
2022-12-31T23:52:25.212Z,113.90
2022-12-31T23:54:51.863Z,99.33
2022-12-31T23:57:18.539Z,120.18
2022-12-31T23:59:45.215Z,119.82
